createdAt,value
2017-06-08T00:01:27.589Z,55.50
2017-06-08T00:03:55.895Z,55.30
2017-06-08T00:06:24.238Z,55.40
2017-06-08T00:08:52.785Z,55.20
2017-06-08T00:11:21.095Z,55.10
2017-06-08T00:13:49.525Z,55.40
2017-06-08T00:16:18.157Z,55.30
2017-06-08T00:18:46.467Z,55.10
2017-06-08T00:21:14.801Z,55.00
2017-06-08T00:23:43.395Z,55.10
2017-06-08T00:26:11.717Z,55.60
2017-06-08T00:28:40.030Z,54.90
2017-06-08T00:31:08.578Z,54.80
2017-06-08T00:33:36.895Z,54.70
2017-06-08T00:36:05.226Z,54.70
2017-06-08T00:38:33.855Z,54.80
2017-06-08T00:41:02.165Z,54.90
2017-06-08T00:43:30.527Z,55.10
2017-06-08T00:45:59.137Z,55.20
2017-06-08T00:48:27.456Z,55.30
2017-06-08T00:50:55.766Z,55.30
2017-06-08T00:53:24.479Z,55.40
2017-06-08T00:55:52.783Z,55.50
2017-06-08T00:58:21.081Z,55.60
2017-06-08T01:00:49.683Z,55.60
2017-06-08T01:03:17.977Z,55.50
2017-06-08T01:05:46.285Z,55.50
2017-06-08T01:08:14.942Z,55.50
2017-06-08T01:10:43.253Z,55.50
2017-06-08T01:13:11.603Z,55.40
2017-06-08T01:15:40.229Z,55.30
2017-06-08T01:18:08.528Z,55.50
2017-06-08T01:20:36.840Z,55.50
2017-06-08T01:23:05.447Z,55.50
2017-06-08T01:25:33.750Z,55.60
2017-06-08T01:28:02.047Z,55.60
2017-06-08T01:30:30.651Z,55.70
2017-06-08T01:32:58.983Z,55.90
2017-06-08T01:35:27.308Z,56.00
2017-06-08T01:37:55.904Z,56.00
2017-06-08T01:40:24.221Z,56.10
2017-06-08T01:42:52.555Z,56.10
2017-06-08T01:45:20.384Z,56.20
2017-06-08T01:47:48.730Z,56.10
2017-06-08T01:50:17.048Z,56.20
2017-06-08T01:52:45.621Z,56.20
2017-06-08T01:55:13.977Z,56.40
2017-06-08T01:57:42.340Z,56.60
2017-06-08T02:00:11.039Z,56.60
2017-06-08T02:02:39.340Z,56.70
2017-06-08T02:05:07.662Z,56.80
2017-06-08T02:07:36.234Z,56.80
2017-06-08T02:10:04.559Z,56.80
2017-06-08T02:12:32.876Z,57.00
2017-06-08T02:15:01.493Z,57.70
2017-06-08T02:17:29.801Z,57.40
2017-06-08T02:19:58.136Z,58.10
2017-06-08T02:22:26.750Z,57.70
2017-06-08T02:24:55.052Z,57.70
2017-06-08T02:27:23.371Z,57.70
2017-06-08T02:29:52.096Z,57.70
2017-06-08T02:32:20.398Z,57.80
2017-06-08T02:34:48.724Z,57.60
2017-06-08T02:37:17.419Z,57.70
2017-06-08T02:39:45.785Z,57.80
2017-06-08T02:42:14.080Z,57.70
2017-06-08T02:44:42.809Z,57.90
2017-06-08T02:47:11.110Z,57.90
2017-06-08T02:49:39.417Z,57.90
2017-06-08T02:52:07.984Z,57.70
2017-06-08T02:54:35.570Z,57.80
2017-06-08T02:57:03.894Z,57.60
2017-06-08T02:59:32.550Z,57.60
2017-06-08T03:02:00.865Z,57.50
2017-06-08T03:04:29.169Z,57.40
2017-06-08T03:06:57.764Z,57.30
2017-06-08T03:09:26.089Z,57.10
2017-06-08T03:11:54.402Z,57.00
2017-06-08T03:14:23.037Z,56.90
2017-06-08T03:16:51.329Z,57.10
2017-06-08T03:19:19.626Z,57.00
2017-06-08T03:21:48.239Z,56.90
2017-06-08T03:24:16.565Z,57.00
2017-06-08T03:26:44.981Z,56.90
2017-06-08T03:29:13.586Z,56.90
2017-06-08T03:31:41.139Z,56.80
2017-06-08T03:34:09.458Z,56.80
2017-06-08T03:36:38.122Z,56.70
2017-06-08T03:39:06.441Z,56.60
2017-06-08T03:41:34.746Z,56.60
2017-06-08T03:44:03.364Z,56.40
2017-06-08T03:46:34.428Z,56.30
2017-06-08T03:49:03.026Z,56.10
2017-06-08T03:51:31.337Z,56.20
2017-06-08T03:54:00.181Z,56.10
2017-06-08T03:56:27.984Z,56.10
2017-06-08T03:58:56.298Z,56.10
2017-06-08T04:01:24.605Z,56.00
2017-06-08T04:03:53.266Z,56.00
2017-06-08T04:06:21.657Z,55.90
2017-06-08T04:08:50.058Z,55.70
2017-06-08T04:11:19.009Z,55.50
2017-06-08T04:13:47.446Z,55.40
2017-06-08T04:16:15.763Z,55.20
2017-06-08T04:18:44.371Z,55.20
2017-06-08T04:21:12.681Z,54.90
2017-06-08T04:23:40.256Z,54.90
2017-06-08T04:26:08.826Z,54.60
2017-06-08T04:28:37.126Z,54.50
2017-06-08T04:31:05.430Z,54.40
2017-06-08T04:33:33.988Z,54.30
2017-06-08T04:36:02.314Z,54.20
2017-06-08T04:38:30.628Z,54.10
2017-06-08T04:40:59.188Z,53.70
2017-06-08T04:43:27.485Z,53.30
2017-06-08T04:45:55.785Z,53.30
2017-06-08T04:48:24.332Z,53.10
2017-06-08T04:50:52.636Z,53.10
2017-06-08T04:53:20.939Z,53.00
2017-06-08T04:55:49.549Z,52.80
2017-06-08T04:58:17.852Z,52.70
2017-06-08T05:00:46.175Z,52.60
2017-06-08T05:03:14.792Z,52.70
2017-06-08T05:05:43.100Z,52.60
2017-06-08T05:08:11.415Z,52.60
2017-06-08T05:10:40.045Z,52.50
2017-06-08T05:13:08.354Z,52.20
2017-06-08T05:15:36.665Z,52.10
2017-06-08T05:18:05.269Z,52.00
2017-06-08T05:20:33.599Z,52.00
2017-06-08T05:23:01.913Z,51.90
2017-06-08T05:25:30.449Z,51.80
2017-06-08T05:27:58.753Z,51.90
2017-06-08T05:30:27.049Z,51.60
2017-06-08T05:32:55.676Z,51.40
2017-06-08T05:35:23.965Z,51.30
2017-06-08T05:37:51.505Z,51.30
2017-06-08T05:40:20.132Z,51.10
2017-06-08T05:42:48.434Z,51.00
2017-06-08T05:45:15.980Z,50.90
2017-06-08T05:47:44.589Z,50.90
2017-06-08T05:50:12.926Z,50.60
2017-06-08T05:52:41.250Z,50.60
2017-06-08T05:55:09.936Z,50.60
2017-06-08T05:57:38.247Z,50.30
2017-06-08T06:00:06.552Z,50.40
2017-06-08T06:02:35.333Z,50.50
2017-06-08T06:05:03.650Z,50.40
2017-06-08T06:07:31.957Z,50.30
2017-06-08T06:10:01.103Z,50.30
2017-06-08T06:12:31.303Z,50.20
2017-06-08T06:14:59.638Z,49.90
2017-06-08T06:17:28.325Z,49.50
2017-06-08T06:19:56.631Z,49.30
2017-06-08T06:22:24.937Z,48.90
2017-06-08T06:24:53.523Z,48.70
2017-06-08T06:27:21.833Z,48.80
2017-06-08T06:29:50.158Z,49.00
2017-06-08T06:32:18.901Z,48.80
2017-06-08T06:34:47.310Z,48.70
2017-06-08T06:37:15.617Z,48.50
2017-06-08T06:39:44.180Z,48.40
2017-06-08T06:42:12.462Z,48.20
2017-06-08T06:44:40.814Z,48.00
2017-06-08T06:47:09.384Z,48.00
2017-06-08T06:49:37.689Z,48.00
2017-06-08T06:52:06.004Z,48.00
2017-06-08T06:54:34.571Z,47.90
2017-06-08T06:57:02.871Z,47.90
2017-06-08T06:59:31.169Z,47.90
2017-06-08T07:01:59.774Z,47.80
2017-06-08T07:04:28.085Z,47.50
2017-06-08T07:06:56.414Z,47.60
2017-06-08T07:09:24.997Z,47.50
2017-06-08T07:11:53.296Z,47.40
2017-06-08T07:14:21.603Z,47.10
2017-06-08T07:16:50.283Z,46.70
2017-06-08T07:19:18.613Z,47.30
2017-06-08T07:21:46.923Z,46.60
2017-06-08T07:24:15.489Z,46.40
2017-06-08T07:26:43.786Z,46.40
2017-06-08T07:29:12.080Z,46.30
2017-06-08T07:31:40.640Z,46.30
2017-06-08T07:34:08.964Z,46.20
2017-06-08T07:36:37.277Z,45.90
2017-06-08T07:39:05.879Z,46.10
2017-06-08T07:41:34.207Z,46.10
2017-06-08T07:44:02.515Z,46.10
2017-06-08T07:46:31.092Z,45.80
2017-06-08T07:48:59.395Z,45.70
2017-06-08T07:51:27.706Z,45.60
2017-06-08T07:53:56.352Z,45.50
2017-06-08T07:56:24.669Z,44.60
2017-06-08T07:58:52.978Z,44.10
2017-06-08T08:01:33.479Z,44.10
2017-06-08T08:04:01.781Z,43.60
2017-06-08T08:06:30.082Z,43.30
2017-06-08T08:08:58.620Z,43.30
2017-06-08T08:11:26.917Z,43.40
2017-06-08T08:13:55.220Z,42.90
2017-06-08T08:16:23.830Z,42.60
2017-06-08T08:18:52.548Z,42.50
2017-06-08T08:21:20.856Z,42.70
2017-06-08T08:23:49.510Z,42.50
2017-06-08T08:26:17.826Z,42.40
2017-06-08T08:28:46.123Z,41.50
2017-06-08T08:31:14.728Z,41.00
2017-06-08T08:33:43.113Z,41.00
2017-06-08T08:36:11.445Z,40.50
2017-06-08T08:38:40.050Z,40.60
2017-06-08T08:41:08.365Z,40.70
2017-06-08T08:43:36.658Z,40.80
2017-06-08T08:46:04.569Z,40.80
2017-06-08T08:48:32.863Z,41.00
2017-06-08T08:51:01.178Z,40.10
2017-06-08T08:53:29.866Z,39.80
2017-06-08T08:55:58.196Z,40.00
2017-06-08T08:58:26.514Z,39.60
2017-06-08T09:00:55.098Z,39.40
2017-06-08T09:03:23.421Z,39.20
2017-06-08T09:05:51.743Z,39.00
2017-06-08T09:08:20.357Z,38.90
2017-06-08T09:10:48.667Z,38.80
2017-06-08T09:13:16.984Z,38.50
2017-06-08T09:15:45.602Z,38.30
2017-06-08T09:18:13.145Z,38.30
2017-06-08T09:20:41.483Z,38.00
2017-06-08T09:23:10.110Z,37.80
2017-06-08T09:25:38.594Z,38.10
2017-06-08T09:28:06.900Z,38.10
2017-06-08T09:30:35.480Z,38.10
2017-06-08T09:33:03.793Z,38.10
2017-06-08T09:35:32.101Z,38.10
2017-06-08T09:38:00.694Z,37.70
2017-06-08T09:40:29.004Z,37.20
2017-06-08T09:42:57.335Z,37.10
2017-06-08T09:45:25.933Z,36.70
2017-06-08T09:47:53.537Z,36.60
2017-06-08T09:50:21.860Z,36.70
2017-06-08T09:52:50.425Z,37.00
2017-06-08T09:55:18.740Z,36.70
2017-06-08T09:57:46.291Z,36.70
2017-06-08T10:00:14.884Z,36.40
2017-06-08T10:02:43.193Z,35.90
2017-06-08T10:05:11.503Z,35.80
2017-06-08T10:07:40.122Z,35.70
2017-06-08T10:10:08.424Z,35.90
2017-06-08T10:12:36.739Z,36.30
2017-06-08T10:15:05.270Z,35.80
2017-06-08T10:17:33.569Z,35.80
2017-06-08T10:20:01.881Z,35.70
2017-06-08T10:22:30.503Z,35.30
2017-06-08T10:24:58.804Z,35.40
2017-06-08T10:27:27.107Z,34.90
2017-06-08T10:29:55.818Z,35.10
2017-06-08T10:32:24.135Z,35.10
2017-06-08T10:34:52.455Z,34.90
2017-06-08T10:37:21.089Z,35.00
2017-06-08T10:39:49.395Z,35.30
2017-06-08T10:42:17.715Z,35.40
2017-06-08T10:44:46.437Z,35.50
2017-06-08T10:47:14.761Z,35.20
2017-06-08T10:49:43.073Z,35.10
2017-06-08T10:52:11.670Z,34.80
2017-06-08T10:54:39.972Z,34.10
2017-06-08T10:57:08.289Z,34.10
2017-06-08T10:59:36.979Z,34.10
2017-06-08T11:02:05.299Z,34.20
2017-06-08T11:04:33.606Z,33.60
2017-06-08T11:07:02.303Z,33.20
2017-06-08T11:09:30.601Z,33.10
2017-06-08T11:11:58.924Z,32.80
2017-06-08T11:14:27.504Z,32.80
2017-06-08T11:16:55.801Z,32.50
2017-06-08T11:19:24.122Z,32.60
2017-06-08T11:21:52.743Z,32.40
2017-06-08T11:24:21.057Z,32.30
2017-06-08T11:26:49.354Z,31.40
2017-06-08T11:29:17.918Z,31.40
2017-06-08T11:31:46.249Z,31.50
2017-06-08T11:34:14.576Z,30.80
2017-06-08T11:36:43.228Z,30.50
2017-06-08T11:39:11.538Z,30.30
2017-06-08T11:41:39.840Z,30.10
2017-06-08T11:44:08.478Z,30.10
2017-06-08T11:46:36.788Z,30.00
2017-06-08T11:49:05.104Z,29.80
2017-06-08T11:51:33.821Z,29.60
2017-06-08T11:54:02.159Z,29.60
2017-06-08T11:56:30.464Z,29.10
2017-06-08T11:58:59.051Z,28.10
2017-06-08T12:01:27.376Z,27.90
2017-06-08T12:03:55.687Z,27.50
2017-06-08T12:06:24.277Z,27.20
2017-06-08T12:08:52.995Z,27.10
2017-06-08T12:11:21.293Z,26.90
2017-06-08T12:13:49.897Z,26.70
2017-06-08T12:16:18.210Z,27.00
2017-06-08T12:18:46.533Z,26.80
2017-06-08T12:21:20.817Z,27.30
2017-06-08T12:23:49.130Z,26.50
2017-06-08T12:26:17.431Z,26.00
2017-06-08T12:28:45.996Z,25.90
2017-06-08T12:31:14.318Z,25.60
2017-06-08T12:33:42.615Z,25.70
2017-06-08T12:36:11.189Z,25.70
2017-06-08T12:38:39.498Z,25.60
2017-06-08T12:41:07.812Z,25.40
2017-06-08T12:43:36.455Z,25.50
2017-06-08T12:46:04.786Z,25.50
2017-06-08T12:48:33.089Z,25.40
2017-06-08T12:51:01.686Z,25.00
2017-06-08T12:53:29.998Z,25.10
2017-06-08T12:55:58.308Z,25.10
2017-06-08T12:58:26.868Z,24.30
2017-06-08T13:00:55.170Z,23.90
2017-06-08T13:03:23.511Z,23.90
2017-06-08T13:05:52.309Z,23.50
2017-06-08T13:08:20.635Z,23.10
2017-06-08T13:10:48.938Z,23.10
2017-06-08T13:13:17.616Z,23.00
2017-06-08T13:15:45.922Z,23.40
2017-06-08T13:18:14.225Z,23.60
2017-06-08T13:20:42.787Z,23.50
2017-06-08T13:23:11.102Z,23.90
2017-06-08T13:25:39.398Z,24.40
2017-06-08T13:28:07.979Z,24.70
2017-06-08T13:30:36.282Z,24.80
2017-06-08T13:33:04.579Z,24.90
2017-06-08T13:35:33.108Z,25.30
2017-06-08T13:38:01.413Z,25.60
2017-06-08T13:40:29.739Z,25.80
2017-06-08T13:42:58.289Z,25.60
2017-06-08T13:45:26.609Z,25.90
2017-06-08T13:47:54.921Z,25.50
2017-06-08T13:50:23.490Z,25.70
2017-06-08T13:52:51.808Z,26.00
2017-06-08T13:55:20.126Z,26.20
2017-06-08T13:57:48.690Z,25.50
2017-06-08T14:00:16.989Z,25.40
2017-06-08T14:02:45.320Z,25.50
2017-06-08T14:05:14.001Z,25.40
2017-06-08T14:07:42.364Z,25.50
2017-06-08T14:10:10.697Z,25.60
2017-06-08T14:12:39.312Z,25.30
2017-06-08T14:15:07.606Z,25.00
2017-06-08T14:17:35.928Z,24.50
2017-06-08T14:20:04.614Z,24.10
2017-06-08T14:22:32.934Z,24.00
2017-06-08T14:25:01.252Z,23.70
2017-06-08T14:27:29.885Z,23.70
2017-06-08T14:29:58.207Z,23.90
2017-06-08T14:32:26.513Z,23.60
2017-06-08T14:34:55.108Z,23.50
2017-06-08T14:37:23.424Z,22.50
2017-06-08T14:39:51.825Z,22.10
2017-06-08T14:42:20.471Z,22.10
2017-06-08T14:44:48.809Z,21.80
2017-06-08T14:47:17.181Z,22.00
2017-06-08T14:49:45.860Z,22.30
2017-06-08T14:52:14.176Z,22.40
2017-06-08T14:54:42.466Z,22.60
2017-06-08T14:57:11.013Z,22.60
2017-06-08T14:59:39.372Z,22.80
2017-06-08T15:02:07.678Z,22.80
2017-06-08T15:04:36.324Z,22.60
2017-06-08T15:07:04.668Z,22.50
2017-06-08T15:09:32.997Z,22.20
2017-06-08T15:12:01.528Z,22.20
2017-06-08T15:14:29.845Z,22.10
2017-06-08T15:16:58.155Z,22.30
2017-06-08T15:19:26.951Z,22.10
2017-06-08T15:21:55.794Z,22.00
2017-06-08T15:24:24.105Z,21.90
2017-06-08T15:26:52.678Z,22.10
2017-06-08T15:29:20.998Z,22.00
2017-06-08T15:31:49.314Z,22.00
2017-06-08T15:34:17.909Z,22.00
2017-06-08T15:36:46.220Z,21.80
2017-06-08T15:39:14.534Z,21.80
2017-06-08T15:41:43.091Z,22.00
2017-06-08T15:44:11.406Z,22.00
2017-06-08T15:46:39.706Z,22.20
2017-06-08T15:49:08.427Z,22.30
2017-06-08T15:51:36.739Z,22.40
2017-06-08T15:54:05.045Z,22.30
2017-06-08T15:56:33.625Z,22.10
2017-06-08T15:59:01.937Z,22.00
2017-06-08T16:01:30.234Z,21.80
2017-06-08T16:03:58.870Z,22.20
2017-06-08T16:06:26.413Z,22.10
2017-06-08T16:08:54.736Z,22.30
2017-06-08T16:11:23.392Z,22.30
2017-06-08T16:13:51.706Z,22.30
2017-06-08T16:16:20.034Z,22.40
2017-06-08T16:18:48.585Z,22.80
2017-06-08T16:21:16.899Z,22.30
2017-06-08T16:23:45.218Z,22.50
2017-06-08T16:26:13.757Z,22.50
2017-06-08T16:28:42.064Z,22.30
2017-06-08T16:31:10.369Z,22.30
2017-06-08T16:33:39.006Z,22.30
2017-06-08T16:36:07.325Z,22.50
2017-06-08T16:38:35.630Z,22.60
2017-06-08T16:41:04.248Z,22.80
2017-06-08T16:43:32.549Z,22.80
2017-06-08T16:46:00.848Z,22.50
2017-06-08T16:48:29.500Z,22.50
2017-06-08T16:50:57.843Z,22.60
2017-06-08T16:53:25.416Z,22.60
2017-06-08T16:55:54.026Z,22.50
2017-06-08T16:58:22.423Z,23.20
2017-06-08T17:00:50.806Z,22.70
2017-06-08T17:03:19.392Z,22.50
2017-06-08T17:05:47.734Z,22.80
2017-06-08T17:08:16.056Z,23.00
2017-06-08T17:10:44.633Z,23.10
2017-06-08T17:13:12.956Z,23.20
2017-06-08T17:15:41.277Z,23.10
2017-06-08T17:18:09.855Z,23.10
2017-06-08T17:20:38.189Z,23.10
2017-06-08T17:23:06.552Z,23.00
2017-06-08T17:25:35.234Z,23.30
2017-06-08T17:28:03.553Z,23.40
2017-06-08T17:30:31.923Z,23.40
2017-06-08T17:33:00.541Z,23.30
2017-06-08T17:35:28.093Z,23.30
2017-06-08T17:37:56.431Z,23.60
2017-06-08T17:40:24.982Z,23.50
2017-06-08T17:42:53.349Z,23.80
2017-06-08T17:45:21.744Z,24.20
2017-06-08T17:47:50.306Z,24.40
2017-06-08T17:50:18.620Z,24.50
2017-06-08T17:52:46.975Z,24.80
2017-06-08T17:55:15.591Z,24.80
2017-06-08T17:57:43.987Z,24.80
2017-06-08T18:00:12.289Z,24.90
2017-06-08T18:02:40.849Z,24.90
2017-06-08T18:05:09.153Z,25.20
2017-06-08T18:07:37.457Z,25.60
2017-06-08T18:10:06.149Z,25.60
2017-06-08T18:12:34.541Z,25.90
2017-06-08T18:15:02.906Z,26.30
2017-06-08T18:17:31.460Z,26.80
2017-06-08T18:19:59.794Z,27.40
2017-06-08T18:22:27.343Z,27.40
2017-06-08T18:24:56.010Z,27.90
2017-06-08T18:27:24.359Z,28.30
2017-06-08T18:29:52.664Z,28.70
2017-06-08T18:32:21.401Z,29.20
2017-06-08T18:34:49.729Z,29.50
2017-06-08T18:37:18.063Z,29.90
2017-06-08T18:39:46.647Z,30.10
2017-06-08T18:42:14.990Z,30.50
2017-06-08T18:44:43.306Z,31.20
2017-06-08T18:47:11.922Z,31.70
2017-06-08T18:49:40.222Z,32.10
2017-06-08T18:52:08.547Z,32.70
2017-06-08T18:54:37.189Z,33.10
2017-06-08T18:57:05.501Z,33.70
2017-06-08T18:59:35.087Z,33.80
2017-06-08T19:02:03.869Z,34.10
2017-06-08T19:04:32.187Z,34.50
2017-06-08T19:07:00.514Z,35.00
2017-06-08T19:09:31.043Z,35.60
2017-06-08T19:11:59.379Z,35.90
2017-06-08T19:14:27.703Z,36.40
2017-06-08T19:16:56.353Z,36.60
2017-06-08T19:19:24.700Z,36.80
2017-06-08T19:21:53.025Z,37.20
2017-06-08T19:24:21.627Z,37.50
2017-06-08T19:26:49.948Z,37.90
2017-06-08T19:29:18.255Z,38.20
2017-06-08T19:31:46.986Z,38.40
2017-06-08T19:34:15.325Z,38.60
2017-06-08T19:36:43.618Z,38.60
2017-06-08T19:39:13.337Z,38.50
2017-06-08T19:41:41.664Z,38.50
2017-06-08T19:44:09.982Z,38.60
2017-06-08T19:46:38.586Z,39.00
2017-06-08T19:49:06.927Z,39.30
2017-06-08T19:51:35.364Z,39.50
2017-06-08T19:54:04.026Z,39.70
2017-06-08T19:56:32.342Z,39.80
2017-06-08T19:59:02.170Z,40.00
2017-06-08T20:01:30.817Z,40.40
2017-06-08T20:03:59.149Z,40.50
2017-06-08T20:06:27.488Z,40.60
2017-06-08T20:08:56.139Z,40.70
2017-06-08T20:11:24.507Z,40.60
2017-06-08T20:13:52.847Z,40.70
2017-06-08T20:16:21.603Z,40.80
2017-06-08T20:18:49.983Z,41.00
2017-06-08T20:21:18.304Z,41.00
2017-06-08T20:23:46.874Z,41.10
2017-06-08T20:26:15.177Z,41.00
2017-06-08T20:28:42.723Z,41.00
2017-06-08T20:31:11.354Z,41.30
2017-06-08T20:33:39.703Z,41.40
2017-06-08T20:36:08.014Z,42.00
2017-06-08T20:38:36.630Z,41.60
2017-06-08T20:41:04.937Z,41.70
2017-06-08T20:43:33.258Z,41.80
2017-06-08T20:46:01.934Z,42.20
2017-06-08T20:48:30.256Z,42.30
2017-06-08T20:50:58.583Z,42.40
2017-06-08T20:53:27.171Z,42.60
2017-06-08T20:55:55.499Z,42.80
2017-06-08T20:58:23.839Z,42.90
2017-06-08T21:00:52.391Z,43.10
2017-06-08T21:03:20.730Z,43.30
2017-06-08T21:05:49.038Z,43.50
2017-06-08T21:08:17.743Z,43.60
2017-06-08T21:10:46.050Z,43.80
2017-06-08T21:13:13.597Z,43.80
2017-06-08T21:15:42.219Z,44.90
2017-06-08T21:18:10.537Z,44.40
2017-06-08T21:20:38.854Z,44.60
2017-06-08T21:23:07.389Z,44.80
2017-06-08T21:25:35.694Z,45.00
2017-06-08T21:28:03.228Z,45.00
2017-06-08T21:30:31.862Z,45.30
2017-06-08T21:33:00.173Z,45.50
2017-06-08T21:35:28.510Z,45.70
2017-06-08T21:37:57.082Z,46.50
2017-06-08T21:40:25.398Z,46.00
2017-06-08T21:42:53.721Z,46.20
2017-06-08T21:45:22.442Z,46.40
2017-06-08T21:47:50.773Z,46.40
2017-06-08T21:50:19.090Z,46.60
2017-06-08T21:52:47.757Z,46.70
2017-06-08T21:55:16.063Z,46.90
2017-06-08T21:57:44.381Z,46.90
2017-06-08T22:00:12.934Z,47.10
2017-06-08T22:02:41.232Z,47.10
2017-06-08T22:05:09.546Z,47.30
2017-06-08T22:07:38.152Z,47.30
2017-06-08T22:10:06.453Z,47.50
2017-06-08T22:12:34.751Z,47.60
2017-06-08T22:15:03.389Z,47.80
2017-06-08T22:17:31.696Z,47.90
2017-06-08T22:20:00.015Z,47.90
2017-06-08T22:22:28.634Z,48.00
2017-06-08T22:24:56.963Z,48.10
2017-06-08T22:27:25.272Z,48.20
2017-06-08T22:29:53.903Z,48.30
2017-06-08T22:32:22.230Z,48.50
2017-06-08T22:34:50.553Z,48.60
2017-06-08T22:37:19.205Z,48.80
2017-06-08T22:39:47.513Z,48.90
2017-06-08T22:42:15.808Z,48.90
2017-06-08T22:44:44.543Z,49.00
2017-06-08T22:47:12.844Z,49.20
2017-06-08T22:49:41.165Z,49.20
2017-06-08T22:52:09.796Z,49.40
2017-06-08T22:54:38.094Z,49.50
2017-06-08T22:57:06.424Z,49.80
2017-06-08T22:59:35.007Z,50.00
2017-06-08T23:02:03.305Z,50.10
2017-06-08T23:04:31.625Z,50.20
2017-06-08T23:07:00.289Z,50.40
2017-06-08T23:09:28.616Z,50.40
2017-06-08T23:11:56.900Z,50.50
2017-06-08T23:14:25.518Z,50.50
2017-06-08T23:16:53.833Z,50.60
2017-06-08T23:19:22.119Z,50.60
2017-06-08T23:21:50.679Z,50.70
2017-06-08T23:24:19.006Z,50.80
2017-06-08T23:26:47.305Z,51.00
2017-06-08T23:29:15.858Z,51.10
2017-06-08T23:31:44.188Z,51.00
2017-06-08T23:34:12.509Z,51.10
2017-06-08T23:36:41.138Z,51.20
2017-06-08T23:39:09.458Z,51.20
2017-06-08T23:41:37.778Z,51.30
2017-06-08T23:44:06.379Z,51.30
2017-06-08T23:46:34.687Z,51.40
2017-06-08T23:49:02.998Z,51.50
2017-06-08T23:51:31.616Z,51.70
2017-06-08T23:53:59.918Z,51.80
2017-06-08T23:56:28.220Z,52.00
2017-06-08T23:58:56.782Z,52.20
